createdAt,value
2017-09-27T00:01:43.240Z,23.37
2017-09-27T00:04:14.674Z,23.53
2017-09-27T00:06:45.718Z,23.50
2017-09-27T00:09:16.827Z,23.50
2017-09-27T00:11:48.182Z,24.80
2017-09-27T00:14:19.337Z,24.70
2017-09-27T00:16:50.426Z,24.30
2017-09-27T00:19:22.251Z,25.53
2017-09-27T00:22:55.495Z,24.13
2017-09-27T00:25:26.862Z,24.10
2017-09-27T00:27:57.954Z,23.83
2017-09-27T00:30:29.503Z,24.53
2017-09-27T00:33:01.073Z,24.20
2017-09-27T00:35:32.607Z,24.93
2017-09-27T00:38:05.195Z,25.60
2017-09-27T00:40:36.578Z,26.47
2017-09-27T00:43:07.634Z,24.70
2017-09-27T00:45:38.978Z,24.60
2017-09-27T00:48:10.037Z,26.60
2017-09-27T00:50:41.121Z,26.40
2017-09-27T00:53:12.475Z,25.90
2017-09-27T00:55:43.611Z,24.07
2017-09-27T00:58:14.750Z,24.87
2017-09-27T01:00:45.838Z,25.57
2017-09-27T01:03:17.371Z,25.37
2017-09-27T01:05:48.447Z,26.07
2017-09-27T01:08:20.010Z,26.43
2017-09-27T01:10:51.139Z,26.50
2017-09-27T01:13:22.222Z,25.97
2017-09-27T01:15:53.607Z,25.80
2017-09-27T01:18:24.679Z,26.40
2017-09-27T01:20:55.796Z,26.27
2017-09-27T01:23:27.170Z,25.53
2017-09-27T01:25:58.313Z,25.70
2017-09-27T01:28:29.971Z,26.10
2017-09-27T01:31:01.884Z,26.80
2017-09-27T01:33:34.095Z,25.83
2017-09-27T01:36:05.820Z,25.77
2017-09-27T01:38:36.942Z,26.43
2017-09-27T01:41:08.048Z,26.40
2017-09-27T01:43:39.749Z,26.50
2017-09-27T01:46:10.848Z,25.20
2017-09-27T01:48:42.258Z,25.67
2017-09-27T01:51:13.358Z,26.53
2017-09-27T01:53:44.495Z,27.80
2017-09-27T01:56:15.937Z,26.23
2017-09-27T01:58:47.037Z,25.83
2017-09-27T02:01:18.173Z,27.07
2017-09-27T02:03:49.572Z,27.43
2017-09-27T02:06:20.679Z,28.63
2017-09-27T02:08:52.036Z,28.50
2017-09-27T02:11:23.125Z,26.97
2017-09-27T02:13:54.164Z,27.47
2017-09-27T02:16:25.707Z,29.10
2017-09-27T02:18:56.749Z,27.37
2017-09-27T02:21:27.981Z,27.63
2017-09-27T02:23:59.380Z,26.60
2017-09-27T02:26:31.346Z,27.97
2017-09-27T02:29:02.462Z,26.93
2017-09-27T02:31:34.980Z,49.37
2017-09-27T02:34:06.202Z,84.60
2017-09-27T02:36:37.584Z,29.87
2017-09-27T02:39:08.668Z,27.17
2017-09-27T02:41:40.045Z,26.20
2017-09-27T02:44:11.408Z,26.67
2017-09-27T02:46:42.537Z,27.30
2017-09-27T02:49:13.639Z,24.80
2017-09-27T02:51:44.968Z,26.93
2017-09-27T02:54:16.050Z,27.27
2017-09-27T02:56:47.345Z,26.67
2017-09-27T02:59:18.418Z,26.43
2017-09-27T03:01:49.467Z,28.23
2017-09-27T03:04:20.811Z,26.47
2017-09-27T03:06:51.916Z,25.07
2017-09-27T03:09:22.994Z,24.93
2017-09-27T03:11:54.331Z,25.23
2017-09-27T03:14:25.634Z,26.10
2017-09-27T03:16:56.712Z,25.53
2017-09-27T03:19:28.102Z,26.30
2017-09-27T03:21:59.185Z,23.87
2017-09-27T03:24:30.660Z,25.23
2017-09-27T03:27:01.889Z,23.80
2017-09-27T03:29:34.243Z,24.27
2017-09-27T03:32:06.051Z,24.90
2017-09-27T03:34:37.121Z,24.97
2017-09-27T03:37:08.186Z,23.83
2017-09-27T03:39:39.518Z,24.07
2017-09-27T03:42:10.642Z,23.87
2017-09-27T03:44:41.961Z,23.27
2017-09-27T03:47:13.062Z,25.93
2017-09-27T03:49:44.148Z,27.30
2017-09-27T03:52:15.501Z,26.50
2017-09-27T03:54:46.562Z,25.90
2017-09-27T03:57:17.660Z,27.97
2017-09-27T03:59:49.093Z,26.70
2017-09-27T04:02:20.134Z,29.00
2017-09-27T04:04:51.217Z,26.10
2017-09-27T04:07:22.571Z,27.77
2017-09-27T04:09:53.637Z,26.70
2017-09-27T04:12:25.000Z,27.67
2017-09-27T04:14:56.064Z,27.57
2017-09-27T04:17:29.258Z,27.33
2017-09-27T04:20:00.837Z,25.70
2017-09-27T04:22:34.531Z,26.47
2017-09-27T04:25:05.913Z,24.57
2017-09-27T04:27:37.344Z,26.83
2017-09-27T04:30:08.418Z,25.87
2017-09-27T04:32:39.751Z,26.83
2017-09-27T04:35:10.834Z,29.30
2017-09-27T04:37:42.223Z,27.17
2017-09-27T04:40:14.726Z,29.60
2017-09-27T04:42:45.818Z,26.63
2017-09-27T04:45:17.236Z,26.90
2017-09-27T04:47:48.340Z,27.20
2017-09-27T04:50:19.471Z,27.20
2017-09-27T04:52:50.815Z,27.70
2017-09-27T04:55:21.895Z,27.60
2017-09-27T04:57:52.944Z,26.53
2017-09-27T05:00:24.339Z,29.47
2017-09-27T05:02:55.491Z,27.40
2017-09-27T05:05:26.671Z,29.60
2017-09-27T05:07:58.045Z,28.20
2017-09-27T05:10:30.161Z,29.40
2017-09-27T05:13:01.923Z,28.30
2017-09-27T05:15:34.073Z,30.40
2017-09-27T05:18:06.148Z,30.43
2017-09-27T05:20:37.589Z,32.03
2017-09-27T05:23:08.722Z,31.57
2017-09-27T05:25:39.849Z,31.17
2017-09-27T05:28:11.462Z,31.37
2017-09-27T05:30:45.874Z,32.00
2017-09-27T05:33:21.455Z,32.77
2017-09-27T05:35:54.147Z,30.87
2017-09-27T05:38:25.206Z,31.77
2017-09-27T05:40:56.313Z,31.17
2017-09-27T05:43:27.721Z,29.87
2017-09-27T05:45:58.871Z,30.50
2017-09-27T05:48:36.090Z,30.87
2017-09-27T05:51:10.607Z,32.13
2017-09-27T05:53:42.239Z,32.17
2017-09-27T05:56:13.371Z,32.23
2017-09-27T05:58:48.652Z,30.10
2017-09-27T06:01:19.804Z,29.67
2017-09-27T06:03:51.528Z,30.47
2017-09-27T06:06:23.415Z,27.50
2017-09-27T06:08:54.535Z,27.00
2017-09-27T06:11:25.937Z,26.57
2017-09-27T06:13:57.664Z,28.23
2017-09-27T06:16:29.056Z,27.10
2017-09-27T06:19:00.253Z,25.90
2017-09-27T06:21:33.258Z,24.50
2017-09-27T06:24:06.008Z,25.27
2017-09-27T06:26:37.429Z,25.53
2017-09-27T06:29:10.127Z,27.20
2017-09-27T06:31:41.772Z,25.13
2017-09-27T06:34:12.840Z,25.00
2017-09-27T06:36:44.248Z,26.10
2017-09-27T06:39:15.363Z,27.00
2017-09-27T06:41:46.601Z,26.60
2017-09-27T06:44:18.053Z,26.23
2017-09-27T06:46:49.184Z,26.30
2017-09-27T06:49:20.615Z,27.60
2017-09-27T06:51:51.728Z,26.67
2017-09-27T06:54:22.865Z,25.60
2017-09-27T06:56:54.211Z,25.90
2017-09-27T06:59:25.344Z,26.53
2017-09-27T07:01:56.743Z,23.80
2017-09-27T07:04:27.896Z,23.70
2017-09-27T07:06:59.020Z,26.17
2017-09-27T07:09:31.423Z,24.80
2017-09-27T07:12:03.856Z,25.63
2017-09-27T07:14:36.610Z,27.17
2017-09-27T07:17:07.756Z,26.37
2017-09-27T07:19:39.046Z,24.50
2017-09-27T07:22:10.442Z,25.33
2017-09-27T07:24:41.610Z,25.00
2017-09-27T07:27:12.904Z,25.40
2017-09-27T07:29:44.454Z,24.87
2017-09-27T07:32:15.737Z,26.67
2017-09-27T07:34:46.940Z,22.80
2017-09-27T07:37:18.439Z,22.50
2017-09-27T07:39:49.789Z,24.60
2017-09-27T07:42:20.931Z,26.50
2017-09-27T07:44:52.414Z,27.93
2017-09-27T07:47:23.559Z,28.87
2017-09-27T07:49:55.047Z,30.63
2017-09-27T07:52:26.218Z,31.67
2017-09-27T07:54:57.341Z,33.30
2017-09-27T07:57:28.759Z,32.60
2017-09-27T08:00:00.412Z,36.07
2017-09-27T08:02:34.776Z,33.67
2017-09-27T08:05:05.963Z,31.87
2017-09-27T08:07:37.460Z,31.37
2017-09-27T08:10:09.465Z,31.07
2017-09-27T08:12:42.568Z,29.57
2017-09-27T08:15:14.017Z,30.40
2017-09-27T08:17:45.392Z,27.90
2017-09-27T08:20:16.543Z,28.30
2017-09-27T08:22:47.985Z,27.07
2017-09-27T08:25:20.080Z,28.50
2017-09-27T08:27:51.209Z,28.40
2017-09-27T08:30:23.051Z,27.37
2017-09-27T08:32:56.151Z,27.90
2017-09-27T08:35:29.873Z,27.00
2017-09-27T08:38:04.272Z,26.43
2017-09-27T08:40:37.238Z,29.43
2017-09-27T08:43:08.505Z,26.70
2017-09-27T08:45:40.023Z,25.27
2017-09-27T08:48:11.097Z,27.80
2017-09-27T08:50:42.415Z,27.60
2017-09-27T08:53:13.507Z,28.80
2017-09-27T08:55:44.548Z,26.83
2017-09-27T08:58:15.578Z,27.40
2017-09-27T09:00:46.664Z,29.37
2017-09-27T09:03:18.126Z,26.67
2017-09-27T09:05:49.431Z,27.70
2017-09-27T09:08:20.502Z,26.63
2017-09-27T09:10:51.990Z,28.93
2017-09-27T09:13:23.047Z,29.70
2017-09-27T09:15:54.385Z,28.90
2017-09-27T09:18:25.455Z,29.63
2017-09-27T09:20:56.838Z,31.70
2017-09-27T09:23:28.192Z,30.40
2017-09-27T09:25:59.226Z,31.07
2017-09-27T09:28:30.947Z,49.27
2017-09-27T09:31:02.853Z,34.40
2017-09-27T09:33:36.352Z,29.67
2017-09-27T09:36:07.795Z,28.90
2017-09-27T09:38:38.904Z,27.30
2017-09-27T09:41:10.063Z,29.20
2017-09-27T09:43:41.326Z,26.90
2017-09-27T09:46:12.417Z,26.17
2017-09-27T09:48:43.757Z,28.10
2017-09-27T09:51:14.844Z,28.70
2017-09-27T09:53:47.411Z,29.07
2017-09-27T09:56:20.033Z,29.60
2017-09-27T09:58:51.476Z,30.97
2017-09-27T10:01:22.539Z,29.20
2017-09-27T10:03:53.719Z,29.23
2017-09-27T10:06:25.082Z,29.57
2017-09-27T10:08:56.137Z,30.20
2017-09-27T10:11:27.298Z,29.97
2017-09-27T10:13:58.818Z,30.63
2017-09-27T10:16:31.720Z,29.13
2017-09-27T10:19:03.101Z,28.60
2017-09-27T10:21:35.551Z,27.53
2017-09-27T10:24:06.673Z,27.60
2017-09-27T10:26:38.280Z,26.07
2017-09-27T10:29:09.747Z,27.30
2017-09-27T10:31:40.920Z,25.57
2017-09-27T10:34:12.559Z,25.40
2017-09-27T10:36:43.682Z,23.07
2017-09-27T10:39:14.973Z,23.10
2017-09-27T10:41:46.757Z,22.03
2017-09-27T10:44:17.905Z,21.20
2017-09-27T10:46:49.361Z,23.67
2017-09-27T10:49:20.817Z,20.90
2017-09-27T10:51:51.893Z,22.63
2017-09-27T10:54:23.636Z,20.65
2017-09-27T10:56:54.729Z,19.85
2017-09-27T10:59:25.865Z,19.27
2017-09-27T11:01:57.274Z,19.73
2017-09-27T11:04:28.383Z,19.85
2017-09-27T11:06:59.612Z,19.35
2017-09-27T11:09:33.634Z,18.58
2017-09-27T11:12:05.952Z,17.50
2017-09-27T11:14:39.239Z,19.35
2017-09-27T11:17:10.297Z,18.58
2017-09-27T11:19:42.096Z,16.73
2017-09-27T11:22:13.746Z,17.75
2017-09-27T11:24:44.785Z,19.58
2017-09-27T11:27:16.423Z,18.45
2017-09-27T11:29:47.507Z,16.40
2017-09-27T11:32:18.668Z,16.17
2017-09-27T11:34:50.083Z,16.70
2017-09-27T11:37:21.187Z,16.55
2017-09-27T11:39:52.291Z,17.52
2017-09-27T11:42:23.704Z,17.10
2017-09-27T11:44:55.136Z,16.05
2017-09-27T11:47:26.217Z,15.75
2017-09-27T11:49:57.567Z,16.65
2017-09-27T11:52:28.842Z,14.15
2017-09-27T11:55:00.267Z,14.52
2017-09-27T11:57:32.093Z,15.10
2017-09-27T12:00:04.858Z,14.23
2017-09-27T12:02:36.932Z,14.10
2017-09-27T12:05:08.115Z,14.93
2017-09-27T12:07:39.449Z,14.30
2017-09-27T12:10:10.592Z,15.68
2017-09-27T12:12:41.689Z,12.65
2017-09-27T12:15:13.287Z,13.00
2017-09-27T12:17:45.095Z,12.27
2017-09-27T12:20:17.888Z,11.38
2017-09-27T12:22:49.327Z,12.18
2017-09-27T12:25:20.720Z,12.90
2017-09-27T12:27:56.583Z,10.80
2017-09-27T12:33:38.300Z,9.52
2017-09-27T12:36:12.589Z,8.48
2017-09-27T12:38:58.592Z,9.38
2017-09-27T12:41:33.109Z,8.68
2017-09-27T12:44:11.220Z,8.20
2017-09-27T12:46:48.616Z,8.95
2017-09-27T12:51:31.606Z,8.88
2017-09-27T12:54:11.228Z,9.20
2017-09-27T12:56:47.780Z,9.75
2017-09-27T12:59:30.017Z,9.07
2017-09-27T13:02:07.650Z,8.63
2017-09-27T13:04:46.756Z,8.65
2017-09-27T13:07:35.373Z,9.50
2017-09-27T13:10:10.929Z,10.07
2017-09-27T13:12:48.295Z,9.40
2017-09-27T13:15:19.404Z,9.50
2017-09-27T13:17:50.508Z,8.20
2017-09-27T13:20:21.705Z,8.65
2017-09-27T13:22:52.902Z,10.10
2017-09-27T13:25:23.979Z,7.37
2017-09-27T13:27:55.980Z,7.00
2017-09-27T13:30:27.301Z,6.30
2017-09-27T13:32:58.667Z,6.72
2017-09-27T13:35:29.783Z,6.45
2017-09-27T13:38:01.817Z,5.68
2017-09-27T13:40:35.864Z,4.70
2017-09-27T13:43:10.353Z,4.50
2017-09-27T13:45:45.562Z,4.72
2017-09-27T13:48:19.388Z,5.10
2017-09-27T13:50:54.469Z,5.12
2017-09-27T13:53:28.871Z,5.03
2017-09-27T13:56:04.103Z,4.82
2017-09-27T13:58:38.861Z,4.60
2017-09-27T14:01:12.455Z,4.78
2017-09-27T14:03:48.484Z,5.20
2017-09-27T14:06:22.164Z,4.60
2017-09-27T14:08:56.074Z,4.85
2017-09-27T14:11:31.313Z,5.25
2017-09-27T14:14:04.516Z,5.40
2017-09-27T14:16:35.554Z,4.85
2017-09-27T14:19:10.159Z,4.50
2017-09-27T14:24:47.256Z,3.85
2017-09-27T14:27:19.399Z,4.62
2017-09-27T14:29:51.861Z,4.32
2017-09-27T14:32:25.251Z,3.53
2017-09-27T14:34:56.349Z,3.60
2017-09-27T14:37:27.446Z,4.10
2017-09-27T14:39:58.535Z,4.12
2017-09-27T14:42:29.943Z,4.22
2017-09-27T14:45:01.295Z,3.95
2017-09-27T14:47:32.476Z,3.72
2017-09-27T14:50:07.622Z,4.18
2017-09-27T14:52:38.739Z,3.60
2017-09-27T14:55:10.131Z,3.15
2017-09-27T14:57:41.223Z,3.30
2017-09-27T15:00:12.852Z,3.22
2017-09-27T15:02:43.995Z,2.72
2017-09-27T15:05:15.992Z,3.28
2017-09-27T15:07:48.282Z,3.03
2017-09-27T15:10:23.024Z,3.30
2017-09-27T15:12:56.907Z,2.97
2017-09-27T15:15:29.749Z,2.50
2017-09-27T15:18:02.393Z,2.72
2017-09-27T15:20:33.907Z,5.37
2017-09-27T15:23:06.932Z,3.03
2017-09-27T15:25:39.804Z,2.90
2017-09-27T15:28:11.480Z,2.55
2017-09-27T15:30:42.783Z,3.53
2017-09-27T15:33:15.476Z,4.03
2017-09-27T15:35:47.334Z,3.25
2017-09-27T15:38:19.986Z,3.45
2017-09-27T15:40:52.991Z,3.87
2017-09-27T15:46:30.466Z,3.92
2017-09-27T15:49:02.568Z,3.78
2017-09-27T15:51:36.981Z,3.97
2017-09-27T15:54:10.092Z,3.80
2017-09-27T15:56:43.955Z,3.93
2017-09-27T15:59:18.874Z,3.50
2017-09-27T16:01:51.425Z,3.87
2017-09-27T16:04:26.742Z,3.30
2017-09-27T16:07:09.570Z,3.30
2017-09-27T16:09:40.874Z,3.63
2017-09-27T16:12:12.247Z,3.20
2017-09-27T16:14:43.364Z,4.07
2017-09-27T16:17:14.870Z,4.10
2017-09-27T16:19:45.957Z,4.20
2017-09-27T16:22:17.756Z,3.63
2017-09-27T16:24:48.849Z,4.10
2017-09-27T16:27:21.620Z,4.20
2017-09-27T16:29:52.733Z,4.30
2017-09-27T16:32:26.310Z,4.87
2017-09-27T16:34:57.404Z,4.57
2017-09-27T16:37:31.108Z,5.80
2017-09-27T16:40:04.443Z,5.80
2017-09-27T16:42:35.522Z,6.03
2017-09-27T16:45:10.283Z,5.47
2017-09-27T16:47:41.748Z,5.80
2017-09-27T16:50:19.460Z,5.80
2017-09-27T16:52:50.618Z,7.40
2017-09-27T16:55:22.939Z,7.37
2017-09-27T16:57:54.468Z,6.50
2017-09-27T17:00:27.898Z,6.00
2017-09-27T17:03:09.015Z,6.40
2017-09-27T17:05:42.917Z,7.00
2017-09-27T17:08:15.000Z,7.00
2017-09-27T17:10:47.515Z,8.47
2017-09-27T17:13:18.773Z,9.87
2017-09-27T17:15:51.126Z,9.07
2017-09-27T17:18:22.891Z,7.77
2017-09-27T17:20:54.446Z,9.03
2017-09-27T17:23:25.918Z,9.53
2017-09-27T17:25:58.514Z,11.40
2017-09-27T17:28:38.353Z,10.43
2017-09-27T17:31:11.183Z,12.43
2017-09-27T17:33:43.165Z,12.10
2017-09-27T17:36:14.635Z,11.13
2017-09-27T17:38:46.107Z,11.00
2017-09-27T17:41:17.846Z,10.03
2017-09-27T17:43:49.986Z,10.13
2017-09-27T17:46:21.670Z,10.70
2017-09-27T17:51:52.212Z,10.37
2017-09-27T17:54:28.291Z,11.20
2017-09-27T17:57:00.040Z,9.77
2017-09-27T17:59:33.139Z,10.87
2017-09-27T18:02:11.904Z,13.80
2017-09-27T18:04:47.242Z,12.37
2017-09-27T18:07:22.272Z,12.33
2017-09-27T18:09:57.235Z,10.83
2017-09-27T18:12:36.759Z,10.83
2017-09-27T18:15:10.547Z,10.90
2017-09-27T18:17:45.074Z,12.33
2017-09-27T18:20:17.405Z,11.67
2017-09-27T18:22:49.994Z,12.50
2017-09-27T18:25:23.359Z,14.40
2017-09-27T18:27:54.817Z,14.07
2017-09-27T18:30:28.291Z,12.27
2017-09-27T18:32:59.731Z,14.40
2017-09-27T18:35:32.361Z,13.50
2017-09-27T18:38:10.242Z,15.00
2017-09-27T18:40:42.757Z,14.03
2017-09-27T18:43:17.221Z,13.77
2017-09-27T18:45:48.576Z,14.30
2017-09-27T18:48:26.589Z,14.50
2017-09-27T18:51:01.654Z,13.27
2017-09-27T18:53:33.191Z,13.93
2017-09-27T18:56:07.028Z,16.33
2017-09-27T18:58:38.898Z,16.33
2017-09-27T19:01:11.364Z,19.50
2017-09-27T19:06:50.777Z,14.77
2017-09-27T19:09:21.861Z,15.40
2017-09-27T19:11:53.604Z,14.80
2017-09-27T19:14:24.747Z,16.73
2017-09-27T19:16:55.822Z,14.90
2017-09-27T19:19:27.122Z,17.50
2017-09-27T19:21:58.540Z,16.70
2017-09-27T19:24:29.967Z,18.40
2017-09-27T19:27:01.316Z,16.33
2017-09-27T19:29:33.964Z,19.40
2017-09-27T19:32:06.203Z,16.00
2017-09-27T19:34:37.365Z,16.40
2017-09-27T19:37:08.748Z,17.27
2017-09-27T19:39:40.410Z,20.77
2017-09-27T19:42:12.004Z,21.60
2017-09-27T19:44:43.076Z,25.80
2017-09-27T19:47:14.957Z,20.97
2017-09-27T19:49:46.065Z,20.33
2017-09-27T19:52:17.180Z,19.97
2017-09-27T19:54:48.703Z,20.47
2017-09-27T19:57:20.624Z,20.60
2017-09-27T19:59:51.894Z,22.60
2017-09-27T20:02:23.064Z,19.07
2017-09-27T20:04:54.127Z,18.37
2017-09-27T20:07:25.710Z,20.10
2017-09-27T20:09:56.799Z,18.47
2017-09-27T20:12:27.881Z,42.37
2017-09-27T20:15:02.398Z,32.80
2017-09-27T20:17:34.902Z,25.70
2017-09-27T20:20:06.064Z,24.70
2017-09-27T20:22:37.745Z,24.87
2017-09-27T20:25:08.925Z,25.60
2017-09-27T20:27:40.201Z,26.20
2017-09-27T20:30:11.305Z,21.57
2017-09-27T20:32:42.701Z,19.73
2017-09-27T20:35:13.900Z,16.93
2017-09-27T20:37:45.049Z,16.43
2017-09-27T20:40:16.429Z,15.83
2017-09-27T20:42:47.640Z,14.67
2017-09-27T20:45:19.689Z,13.53
2017-09-27T20:47:51.054Z,12.83
2017-09-27T20:50:22.107Z,13.30
2017-09-27T20:52:53.185Z,13.17
2017-09-27T20:55:24.592Z,13.03
2017-09-27T20:57:56.050Z,14.00
2017-09-27T21:00:27.176Z,14.03
2017-09-27T21:02:58.853Z,14.80
2017-09-27T21:05:30.116Z,14.63
2017-09-27T21:08:02.128Z,14.47
2017-09-27T21:10:35.067Z,17.30
2017-09-27T21:13:06.634Z,14.77
2017-09-27T21:15:37.806Z,15.50
2017-09-27T21:18:09.509Z,15.30
2017-09-27T21:20:40.576Z,16.47
2017-09-27T21:23:11.670Z,15.20
2017-09-27T21:25:43.148Z,14.47
2017-09-27T21:28:14.417Z,13.73
2017-09-27T21:30:45.444Z,14.00
2017-09-27T21:33:16.528Z,14.30
2017-09-27T21:35:47.576Z,15.30
2017-09-27T21:38:18.874Z,15.30
2017-09-27T21:40:50.373Z,14.10
2017-09-27T21:43:21.684Z,13.07
2017-09-27T21:45:52.805Z,12.47
2017-09-27T21:48:24.969Z,13.30
2017-09-27T21:50:56.173Z,13.17
2017-09-27T21:53:27.250Z,15.93
2017-09-27T21:55:58.390Z,13.67
2017-09-27T21:58:29.420Z,12.83
2017-09-27T22:01:00.480Z,11.70
2017-09-27T22:03:32.984Z,13.20
2017-09-27T22:06:05.057Z,11.63
2017-09-27T22:08:36.392Z,14.40
2017-09-27T22:11:07.488Z,12.50
2017-09-27T22:13:39.234Z,12.07
2017-09-27T22:16:10.351Z,12.67
2017-09-27T22:18:41.625Z,13.37
2017-09-27T22:21:12.835Z,14.27
2017-09-27T22:23:44.002Z,13.60
2017-09-27T22:26:15.188Z,14.20
2017-09-27T22:28:46.916Z,13.70
2017-09-27T22:31:18.029Z,12.30
2017-09-27T22:33:49.480Z,14.90
2017-09-27T22:36:20.632Z,13.70
2017-09-27T22:38:51.932Z,14.13
2017-09-27T22:41:23.033Z,14.27
2017-09-27T22:43:54.736Z,13.60
2017-09-27T22:46:25.845Z,12.93
2017-09-27T22:48:57.109Z,13.90
2017-09-27T22:51:28.213Z,13.27
2017-09-27T22:53:59.441Z,14.30
2017-09-27T22:56:32.243Z,14.13
2017-09-27T22:59:03.786Z,14.30
2017-09-27T23:01:35.934Z,16.10
2017-09-27T23:04:07.361Z,14.90
2017-09-27T23:06:38.482Z,15.30
2017-09-27T23:09:09.639Z,14.97
2017-09-27T23:11:41.100Z,131.97
2017-09-27T23:14:12.365Z,27.90
2017-09-27T23:16:43.507Z,17.00
2017-09-27T23:19:15.059Z,19.20
2017-09-27T23:21:46.175Z,18.50
2017-09-27T23:24:17.364Z,18.10
2017-09-27T23:26:48.454Z,17.70
2017-09-27T23:29:20.417Z,19.60
2017-09-27T23:31:51.522Z,17.63
2017-09-27T23:34:22.633Z,20.00
2017-09-27T23:36:53.741Z,20.77
2017-09-27T23:39:25.004Z,20.33
2017-09-27T23:41:56.445Z,19.57
2017-09-27T23:44:27.823Z,20.97
2017-09-27T23:46:58.942Z,20.30
2017-09-27T23:49:30.423Z,21.70
2017-09-27T23:52:02.409Z,22.80
2017-09-27T23:54:36.499Z,21.77
2017-09-27T23:57:07.714Z,23.40
2017-09-27T23:59:39.145Z,21.73
